Snel-info
Kleurcode:
Groen
Er mag gevlogen worden.
Laatste update: 01/01/2018
Kleurcode informatie

Grasmaaien:

Geen maaibeurten gepland.

Volgende vliegdagen:

(geen extra vliegdagen gevonden)
Alle extra vliegdagen

Weersituatie op PMF:

6_Knuffelvliegen_2014_DirkVanLoco_021.jpg

Huidige weersituatie

Huidig weerbeeld in Kleine Brogel, Belgium
Huidige wind in Kleine Brogel, Belgium

Dit is het bericht voor Kleine Brogel, Belgium en werd 10 minuten geleden gemaakt.
De wind waaide met een snelheid van 1.5 meter per seconde (5.6 km/h) uit het zuiden (180°).
De temperatuur was 3 °C. De gevoelstemperatuur was 1 °C. De atmosferische druk was 1001 hPa. De relative luchtvochtigheid was 93.1%. Het algemene zicht was meer dan 10 kilometer. Momenteel lichte regen.

De onbewerkte METAR gegevens waarop dit bericht is gebaseerd zijn:
EBBL 201225Z AUTO 18003KT 9999 -RA OVC007/// 03/02 Q1001 GRN


Opmerking:
De wind blijkt op PMF meestal iets krachtiger te waaien dan op Kleine Brogel. De windrichting klopt dan weer wel.




KMI

De weersvoorspellingen van het KMI vind je via deze link.


Buienradar

Op www.buienradar.nl kun je zelf zien waar het nu en de komende uren regent.